Time;durP1;ratioP1;P1;durP2;ratioP2;P2;SDS_P1;SDS_P2;PMS_P1;PMS_P2;Temp;Humidity;BMP_temperature;BMP_pressure;BME280_temperature;BME280_humidity;BME280_pressure;Samples;Min_cycle;Max_cycle;Signal;HPM_P1;HPM_P2
2023/02/18 00:01:55;;;;;;;6.72;3.03;;;;;;;;;;5032210;28;20049;-79
2023/02/18 00:04:22;;;;;;;6.95;3.25;;;;;;;;;;5031439;28;20067;-77
2023/02/18 00:06:48;;;;;;;6.97;3.20;;;;;;;;;;5031220;28;20566;-77
2023/02/18 00:09:15;;;;;;;8.88;3.72;;;;;;;;;;5030770;28;20585;-76
2023/02/18 00:11:42;;;;;;;7.22;3.17;;;;;;;;;;5030166;28;20044;-77
2023/02/18 00:14:12;;;;;;;7.32;3.70;;;;;;;;;;5031039;28;20041;-76
2023/02/18 00:16:40;;;;;;;6.25;3.20;;;;;;;;;;5031823;28;20072;-76
2023/02/18 00:19:10;;;;;;;6.80;3.78;;;;;;;;;;5030455;28;20045;-78
2023/02/18 00:21:37;;;;;;;7.65;3.58;;;;;;;;;;5031392;28;20053;-77
2023/02/18 00:24:05;;;;;;;8.65;3.45;;;;;;;;;;5033165;28;20481;-77
2023/02/18 00:26:32;;;;;;;6.18;3.47;;;;;;;;;;5033417;28;20061;-77
2023/02/18 00:28:59;;;;;;;9.25;3.75;;;;;;;;;;5044738;28;20127;-77
2023/02/18 00:31:28;;;;;;;7.38;3.47;;;;;;;;;;5052051;28;20202;-77
2023/02/18 00:33:58;;;;;;;9.77;3.40;;;;;;;;;;5052333;28;20047;-77
2023/02/18 00:36:25;;;;;;;9.05;3.70;;;;;;;;;;5053094;28;20052;-77
2023/02/18 00:38:53;;;;;;;6.55;3.05;;;;;;;;;;5050677;28;20135;-79
2023/02/18 00:41:22;;;;;;;6.03;3.25;;;;;;;;;;5054971;28;20098;-77
2023/02/18 00:43:49;;;;;;;5.97;2.75;;;;;;;;;;5053185;28;20049;-77
2023/02/18 00:46:17;;;;;;;5.88;3.47;;;;;;;;;;5053525;28;20048;-78
2023/02/18 00:48:44;;;;;;;6.82;3.00;;;;;;;;;;5053151;28;20135;-78
2023/02/18 00:51:13;;;;;;;6.55;3.08;;;;;;;;;;5052582;28;20128;-77
2023/02/18 00:53:40;;;;;;;6.35;3.03;;;;;;;;;;5047763;28;20124;-78
2023/02/18 00:56:07;;;;;;;6.32;3.13;;;;;;;;;;5052435;28;20124;-77
2023/02/18 00:58:33;;;;;;;5.57;3.05;;;;;;;;;;5049431;28;20048;-77
2023/02/18 01:01:00;;;;;;;6.57;3.15;;;;;;;;;;5037960;28;20041;-77
2023/02/18 01:03:27;;;;;;;6.85;3.53;;;;;;;;;;5034178;28;20049;-78
2023/02/18 01:05:54;;;;;;;5.18;2.60;;;;;;;;;;5040864;28;20128;-77
2023/02/18 01:08:22;;;;;;;6.07;2.70;;;;;;;;;;5051967;28;20136;-77
2023/02/18 01:10:52;;;;;;;6.53;3.00;;;;;;;;;;5043330;28;20052;-77
2023/02/18 01:13:19;;;;;;;6.22;2.85;;;;;;;;;;5051663;28;20068;-77
2023/02/18 01:15:46;;;;;;;8.93;3.03;;;;;;;;;;5052174;28;20051;-77
2023/02/18 01:18:13;;;;;;;6.47;2.80;;;;;;;;;;5048043;28;20132;-77
2023/02/18 01:20:42;;;;;;;5.35;2.85;;;;;;;;;;5051583;28;20080;-77
2023/02/18 01:23:09;;;;;;;5.18;2.22;;;;;;;;;;5051470;28;20041;-77
2023/02/18 01:25:38;;;;;;;6.22;2.90;;;;;;;;;;5051610;28;20465;-77
2023/02/18 01:28:06;;;;;;;6.28;3.17;;;;;;;;;;5047835;28;20133;-77
2023/02/18 01:30:33;;;;;;;5.38;2.60;;;;;;;;;;5047434;28;20059;-77
2023/02/18 01:33:00;;;;;;;7.05;3.28;;;;;;;;;;5051512;28;20416;-77
2023/02/18 01:35:27;;;;;;;6.00;2.83;;;;;;;;;;5051982;28;20092;-78
2023/02/18 01:37:54;;;;;;;4.88;2.45;;;;;;;;;;5051585;28;20586;-77
2023/02/18 01:40:24;;;;;;;6.25;3.10;;;;;;;;;;5041884;28;20041;-77
2023/02/18 01:42:52;;;;;;;6.38;2.92;;;;;;;;;;5051673;28;20128;-78
2023/02/18 01:45:47;;;;;;;5.43;2.58;;;;;;;;;;5051379;28;20041;-76
2023/02/18 01:48:18;;;;;;;7.53;2.85;;;;;;;;;;5051442;28;20087;-76
2023/02/18 01:50:48;;;;;;;6.82;2.78;;;;;;;;;;5044036;28;20598;-77
2023/02/18 01:53:18;;;;;;;6.40;2.60;;;;;;;;;;5035665;28;20132;-77
2023/02/18 01:55:47;;;;;;;6.63;3.60;;;;;;;;;;5035607;28;20129;-77
2023/02/18 01:58:16;;;;;;;4.95;2.72;;;;;;;;;;5036206;28;20120;-77
2023/02/18 02:00:43;;;;;;;7.35;2.83;;;;;;;;;;5044725;28;20503;-78
2023/02/18 02:03:09;;;;;;;5.57;2.80;;;;;;;;;;5052487;28;20049;-77
2023/02/18 02:05:36;;;;;;;5.88;2.60;;;;;;;;;;5055411;28;20128;-77
2023/02/18 02:08:04;;;;;;;6.88;3.00;;;;;;;;;;5055125;28;20073;-77
2023/02/18 02:10:40;;;;;;;5.88;2.80;;;;;;;;;;5041238;28;20412;-77
2023/02/18 02:13:15;;;;;;;6.90;3.30;;;;;;;;;;5035172;28;20133;-77
2023/02/18 02:15:47;;;;;;;6.63;3.10;;;;;;;;;;5035206;28;20050;-78
2023/02/18 02:18:39;;;;;;;6.95;3.63;;;;;;;;;;5034991;28;20132;-77
2023/02/18 02:21:44;;;;;;;5.93;3.38;;;;;;;;;;5047481;28;20041;-77
2023/02/18 02:24:46;;;;;;;7.65;3.70;;;;;;;;;;5034867;28;20052;-76
2023/02/18 02:27:21;;;;;;;8.45;3.20;;;;;;;;;;5035097;28;20045;-77
2023/02/18 02:30:21;;;;;;;6.50;3.55;;;;;;;;;;5041635;28;20415;-77
2023/02/18 02:33:21;;;;;;;7.32;3.50;;;;;;;;;;5034876;28;20060;-77
2023/02/18 02:39:18;;;;;;;5.90;3.03;;;;;;;;;;5033669;28;20037;-77
2023/02/18 02:41:54;;;;;;;6.80;3.03;;;;;;;;;;5053839;28;20051;-77
2023/02/18 02:44:27;;;;;;;7.55;3.30;;;;;;;;;;5045497;28;20499;-77
2023/02/18 02:47:00;;;;;;;5.63;3.53;;;;;;;;;;5034724;28;20050;-76
2023/02/18 02:49:37;;;;;;;6.30;3.10;;;;;;;;;;5039123;28;20099;-76
2023/02/18 02:52:07;;;;;;;6.30;3.10;;;;;;;;;;5034427;28;20042;-76
2023/02/18 02:54:35;;;;;;;;;;;;;;;;;;5034937;28;20132;-77
2023/02/18 02:57:08;;;;;;;5.18;2.45;;;;;;;;;;5034804;28;20356;-77
2023/02/18 02:59:37;;;;;;;5.22;2.75;;;;;;;;;;5046839;28;20571;-77
2023/02/18 03:02:21;;;;;;;5.38;2.63;;;;;;;;;;5053661;28;20084;-77
2023/02/18 03:05:06;;;;;;;4.93;2.50;;;;;;;;;;5054589;28;20452;-77
2023/02/18 03:07:50;;;;;;;5.00;2.40;;;;;;;;;;5014569;28;20450;-77
2023/02/18 03:10:30;;;;;;;7.90;3.53;;;;;;;;;;5037739;28;20045;-78
2023/02/18 03:13:07;;;;;;;5.32;2.72;;;;;;;;;;5034495;28;20132;-77
2023/02/18 03:15:40;;;;;;;5.63;2.58;;;;;;;;;;5034312;28;20090;-77
2023/02/18 03:18:14;;;;;;;5.90;2.40;;;;;;;;;;5035597;28;20564;-77
2023/02/18 03:20:46;;;;;;;5.05;2.22;;;;;;;;;;5035784;28;20103;-77
2023/02/18 03:23:20;;;;;;;5.90;2.42;;;;;;;;;;5035550;28;20111;-77
2023/02/18 03:25:50;;;;;;;6.00;2.42;;;;;;;;;;5036461;28;20046;-77
2023/02/18 03:28:19;;;;;;;5.32;2.47;;;;;;;;;;5036524;28;20088;-77
2023/02/18 03:30:50;;;;;;;4.82;2.90;;;;;;;;;;5035232;28;20049;-77
2023/02/18 03:33:22;;;;;;;6.32;2.55;;;;;;;;;;5035263;28;20595;-77
2023/02/18 03:35:49;;;;;;;4.72;2.47;;;;;;;;;;5035620;28;20081;-77
2023/02/18 03:38:20;;;;;;;5.07;2.45;;;;;;;;;;5037959;28;20109;-79
2023/02/18 03:40:49;;;;;;;4.82;2.67;;;;;;;;;;5058399;28;20081;-78
2023/02/18 03:43:15;;;;;;;5.05;2.33;;;;;;;;;;5055442;28;20081;-77
2023/02/18 03:45:42;;;;;;;4.88;2.47;;;;;;;;;;5053485;28;20123;-76
2023/02/18 03:48:09;;;;;;;4.75;2.40;;;;;;;;;;5054294;28;20084;-77
2023/02/18 03:50:35;;;;;;;4.45;2.38;;;;;;;;;;5047523;28;20084;-77
2023/02/18 03:53:02;;;;;;;4.30;2.38;;;;;;;;;;5033196;28;20484;-76
2023/02/18 03:55:29;;;;;;;4.55;2.30;;;;;;;;;;5034063;28;20046;-76
2023/02/18 03:57:57;;;;;;;4.60;2.25;;;;;;;;;;5033595;28;20132;-77
2023/02/18 04:00:23;;;;;;;4.53;2.05;;;;;;;;;;5013723;28;20133;-77
2023/02/18 04:02:50;;;;;;;4.32;2.10;;;;;;;;;;5013689;28;20184;-76
2023/02/18 04:05:17;;;;;;;4.00;2.20;;;;;;;;;;5014269;28;20054;-77
2023/02/18 04:07:43;;;;;;;4.28;2.30;;;;;;;;;;5027143;28;20077;-77
2023/02/18 04:10:11;;;;;;;5.00;2.42;;;;;;;;;;5036391;28;20128;-76
2023/02/18 04:12:37;;;;;;;4.75;2.50;;;;;;;;;;5036303;28;20104;-77
2023/02/18 04:15:06;;;;;;;6.15;2.65;;;;;;;;;;5035293;28;20539;-77
2023/02/18 04:17:33;;;;;;;5.60;2.80;;;;;;;;;;5033906;28;20089;-77
2023/02/18 04:20:00;;;;;;;3.80;2.20;;;;;;;;;;5050909;28;20136;-77
2023/02/18 04:22:26;;;;;;;4.60;2.50;;;;;;;;;;5053093;28;20073;-77
2023/02/18 04:24:53;;;;;;;4.65;2.42;;;;;;;;;;5052702;28;20064;-77
2023/02/18 04:27:20;;;;;;;4.93;2.60;;;;;;;;;;5052535;28;20145;-77
2023/02/18 04:29:46;;;;;;;5.68;2.55;;;;;;;;;;5012690;28;20077;-77
2023/02/18 04:32:14;;;;;;;7.32;2.67;;;;;;;;;;5012952;28;20077;-76
2023/02/18 04:34:41;;;;;;;5.15;2.80;;;;;;;;;;5012945;28;20432;-77
2023/02/18 04:37:08;;;;;;;5.40;2.88;;;;;;;;;;5013014;28;20137;-76
2023/02/18 04:39:34;;;;;;;4.78;2.53;;;;;;;;;;5042736;28;20434;-77
2023/02/18 04:42:01;;;;;;;6.38;3.08;;;;;;;;;;5052397;28;20053;-76
2023/02/18 04:44:28;;;;;;;5.78;2.85;;;;;;;;;;5052946;28;20048;-77
2023/02/18 04:46:54;;;;;;;5.93;2.90;;;;;;;;;;5052425;28;20106;-76
2023/02/18 04:49:22;;;;;;;5.32;3.00;;;;;;;;;;5052471;28;20423;-77
2023/02/18 04:51:49;;;;;;;5.00;2.88;;;;;;;;;;5052412;28;20055;-76
2023/02/18 04:54:15;;;;;;;4.75;2.95;;;;;;;;;;5052830;28;20407;-76
2023/02/18 04:56:42;;;;;;;5.00;2.38;;;;;;;;;;5052428;28;20420;-78
2023/02/18 04:59:10;;;;;;;5.43;2.50;;;;;;;;;;5052473;28;20125;-77
2023/02/18 05:01:37;;;;;;;5.22;2.47;;;;;;;;;;5052389;28;20128;-77
2023/02/18 05:04:03;;;;;;;4.95;2.38;;;;;;;;;;5053520;28;20053;-77
2023/02/18 05:06:31;;;;;;;5.03;2.50;;;;;;;;;;5053928;28;20049;-77
2023/02/18 05:08:58;;;;;;;5.20;2.35;;;;;;;;;;5049468;28;20124;-77
2023/02/18 05:11:25;;;;;;;4.85;2.33;;;;;;;;;;5050361;28;20107;-77
2023/02/18 05:13:51;;;;;;;4.93;2.53;;;;;;;;;;5054242;28;20132;-77
2023/02/18 05:16:18;;;;;;;6.22;2.60;;;;;;;;;;5054703;28;20105;-77
2023/02/18 05:18:44;;;;;;;4.22;2.47;;;;;;;;;;5054692;28;20565;-77
2023/02/18 05:21:11;;;;;;;3.92;2.25;;;;;;;;;;5053228;28;20049;-76
2023/02/18 05:23:39;;;;;;;4.35;2.22;;;;;;;;;;5052031;28;20052;-77
2023/02/18 05:26:06;;;;;;;4.43;2.13;;;;;;;;;;5055832;28;20068;-77
2023/02/18 05:28:33;;;;;;;4.30;2.30;;;;;;;;;;5056108;28;20049;-77
2023/02/18 05:31:00;;;;;;;5.70;3.88;;;;;;;;;;5055905;28;20049;-76
2023/02/18 05:33:27;;;;;;;3.78;2.22;;;;;;;;;;5055364;28;20500;-77
2023/02/18 05:35:54;;;;;;;3.65;2.15;;;;;;;;;;5056198;28;20131;-77
2023/02/18 05:38:20;;;;;;;4.65;2.00;;;;;;;;;;5055911;28;20092;-76
2023/02/18 05:40:48;;;;;;;4.22;2.47;;;;;;;;;;5055307;28;20131;-77
2023/02/18 05:43:15;;;;;;;3.70;1.70;;;;;;;;;;5055555;28;20088;-78
2023/02/18 05:45:41;;;;;;;4.78;2.03;;;;;;;;;;5055258;28;20053;-77
2023/02/18 05:48:08;;;;;;;3.53;1.80;;;;;;;;;;5055684;28;20059;-76
2023/02/18 05:50:35;;;;;;;3.40;1.60;;;;;;;;;;5041206;28;20081;-77
2023/02/18 05:53:02;;;;;;;3.47;1.70;;;;;;;;;;5035604;28;20137;-77
2023/02/18 05:55:28;;;;;;;3.58;1.58;;;;;;;;;;5035627;28;20128;-77
2023/02/18 05:57:56;;;;;;;4.97;1.70;;;;;;;;;;5035846;28;20132;-77
2023/02/18 06:00:24;;;;;;;3.13;1.50;;;;;;;;;;5035557;28;20471;-76
2023/02/18 06:02:51;;;;;;;2.80;1.23;;;;;;;;;;5035250;28;20045;-77
2023/02/18 06:05:17;;;;;;;2.67;1.10;;;;;;;;;;5035767;28;20564;-77
2023/02/18 06:07:44;;;;;;;2.65;1.08;;;;;;;;;;5035136;28;20092;-77
2023/02/18 06:10:11;;;;;;;4.28;1.55;;;;;;;;;;5052290;28;20049;-77
2023/02/18 06:12:38;;;;;;;2.67;1.25;;;;;;;;;;5055248;28;20089;-77
2023/02/18 06:15:07;;;;;;;2.70;1.20;;;;;;;;;;5055684;28;20089;-78
2023/02/18 06:17:33;;;;;;;3.25;1.30;;;;;;;;;;5055833;28;20081;-77
2023/02/18 06:20:00;;;;;;;5.63;1.58;;;;;;;;;;5051111;28;20041;-76
2023/02/18 06:22:27;;;;;;;3.50;1.60;;;;;;;;;;5034754;28;20554;-78
2023/02/18 06:24:54;;;;;;;2.63;1.20;;;;;;;;;;5035436;28;20057;-77
2023/02/18 06:27:21;;;;;;;2.60;1.17;;;;;;;;;;5035328;28;20129;-77
2023/02/18 06:29:47;;;;;;;3.17;1.23;;;;;;;;;;5035285;28;20572;-77
2023/02/18 06:32:15;;;;;;;2.70;1.10;;;;;;;;;;5035260;28;20338;-76
2023/02/18 06:34:42;;;;;;;2.42;1.33;;;;;;;;;;5035520;28;20077;-77
2023/02/18 06:37:09;;;;;;;3.17;1.42;;;;;;;;;;5034055;28;20128;-76
2023/02/18 06:39:35;;;;;;;2.65;1.10;;;;;;;;;;5036833;28;20407;-77
2023/02/18 06:42:02;;;;;;;2.28;1.08;;;;;;;;;;5054825;28;20071;-78
2023/02/18 06:44:29;;;;;;;3.08;1.23;;;;;;;;;;5055182;28;20081;-77
2023/02/18 06:46:55;;;;;;;3.85;1.00;;;;;;;;;;5054625;28;20077;-78
2023/02/18 06:49:23;;;;;;;1.70;1.15;;;;;;;;;;5054661;28;20045;-78
2023/02/18 06:51:50;;;;;;;2.63;1.13;;;;;;;;;;5054254;28;20151;-78
2023/02/18 06:54:17;;;;;;;2.35;0.93;;;;;;;;;;5054541;28;20092;-74
2023/02/18 06:56:43;;;;;;;2.72;1.02;;;;;;;;;;5044913;28;20108;-77
2023/02/18 06:59:10;;;;;;;2.50;1.17;;;;;;;;;;5034597;28;20084;-78
2023/02/18 07:01:37;;;;;;;3.22;1.10;;;;;;;;;;5034131;28;20469;-77
2023/02/18 07:04:03;;;;;;;2.78;1.20;;;;;;;;;;5034024;28;20476;-77
2023/02/18 07:06:31;;;;;;;2.60;0.90;;;;;;;;;;5034295;28;20051;-78
2023/02/18 07:08:58;;;;;;;2.42;0.80;;;;;;;;;;5047837;28;20072;-79
2023/02/18 07:11:25;;;;;;;2.53;1.10;;;;;;;;;;5053980;28;20131;-76
2023/02/18 07:13:51;;;;;;;2.55;0.80;;;;;;;;;;5054317;28;20123;-76
2023/02/18 07:16:18;;;;;;;3.15;0.90;;;;;;;;;;5054420;28;20102;-77
2023/02/18 07:18:45;;;;;;;2.28;1.00;;;;;;;;;;5054190;28;20080;-76
2023/02/18 07:21:12;;;;;;;2.60;1.23;;;;;;;;;;5053657;28;20087;-77
2023/02/18 07:23:40;;;;;;;2.75;1.15;;;;;;;;;;5053489;28;20140;-78
2023/02/18 07:26:08;;;;;;;2.40;0.88;;;;;;;;;;5054158;28;20077;-78
2023/02/18 07:28:35;;;;;;;2.28;1.00;;;;;;;;;;5053591;28;20095;-77
2023/02/18 07:31:02;;;;;;;2.60;1.00;;;;;;;;;;5053622;28;20520;-77
2023/02/18 07:33:29;;;;;;;1.88;0.85;;;;;;;;;;5053497;28;20076;-77
2023/02/18 07:35:57;;;;;;;2.58;0.82;;;;;;;;;;5053684;28;20144;-77
2023/02/18 07:38:25;;;;;;;3.33;1.00;;;;;;;;;;5057777;28;20123;-77
2023/02/18 07:40:54;;;;;;;1.83;0.80;;;;;;;;;;5056110;28;20388;-77
2023/02/18 07:43:21;;;;;;;2.03;0.80;;;;;;;;;;5056305;28;20072;-77
2023/02/18 07:45:48;;;;;;;1.77;0.80;;;;;;;;;;5059323;28;20045;-79
2023/02/18 07:48:16;;;;;;;2.30;1.02;;;;;;;;;;5059684;28;20128;-78
2023/02/18 07:50:45;;;;;;;1.77;0.80;;;;;;;;;;5055945;28;20085;-78
2023/02/18 07:53:13;;;;;;;2.58;0.85;;;;;;;;;;5040664;28;20129;-77
2023/02/18 07:55:51;;;;;;;3.17;0.70;;;;;;;;;;5039754;28;20053;-78
2023/02/18 07:58:22;;;;;;;1.40;0.77;;;;;;;;;;5035534;28;20053;-77
2023/02/18 08:00:49;;;;;;;3.60;0.90;;;;;;;;;;5033182;28;20076;-77
2023/02/18 08:03:17;;;;;;;1.55;0.77;;;;;;;;;;5039999;28;20628;-77
2023/02/18 08:05:44;;;;;;;1.60;0.80;;;;;;;;;;5033536;28;20088;-77
2023/02/18 08:08:13;;;;;;;2.13;0.90;;;;;;;;;;5032852;28;20046;-77
2023/02/18 08:10:40;;;;;;;2.00;1.20;;;;;;;;;;5033278;28;20049;-76
2023/02/18 08:13:06;;;;;;;3.88;1.45;;;;;;;;;;5032629;28;20045;-77
2023/02/18 08:15:35;;;;;;;1.88;0.95;;;;;;;;;;5032686;28;20133;-76
2023/02/18 08:18:02;;;;;;;2.30;0.98;;;;;;;;;;5040754;28;20129;-77
2023/02/18 08:20:29;;;;;;;2.67;1.73;;;;;;;;;;5052455;28;20084;-77
2023/02/18 08:22:56;;;;;;;2.15;0.90;;;;;;;;;;5052445;28;20430;-77
2023/02/18 08:25:22;;;;;;;3.22;1.20;;;;;;;;;;5052857;28;20041;-76
2023/02/18 08:27:49;;;;;;;2.65;1.13;;;;;;;;;;5052485;28;20132;-76
2023/02/18 08:30:16;;;;;;;3.58;1.42;;;;;;;;;;5052463;28;20138;-75
2023/02/18 08:32:44;;;;;;;6.88;1.50;;;;;;;;;;5052251;28;20052;-76
2023/02/18 08:35:11;;;;;;;2.25;1.25;;;;;;;;;;5052794;28;20072;-76
2023/02/18 08:37:38;;;;;;;1.80;0.88;;;;;;;;;;5053580;28;20405;-78
2023/02/18 08:40:06;;;;;;;1.73;0.73;;;;;;;;;;5052688;28;20235;-75
2023/02/18 08:42:33;;;;;;;3.10;1.20;;;;;;;;;;5051921;28;20488;-75
2023/02/18 08:44:59;;;;;;;1.25;0.73;;;;;;;;;;5052777;28;20087;-77
2023/02/18 08:47:26;;;;;;;2.90;0.80;;;;;;;;;;5052856;28;20076;-76
2023/02/18 08:49:54;;;;;;;2.88;0.95;;;;;;;;;;5052239;28;20088;-76
2023/02/18 08:52:21;;;;;;;3.10;0.70;;;;;;;;;;5043269;28;20080;-75
2023/02/18 08:54:48;;;;;;;1.80;1.05;;;;;;;;;;5028614;28;20133;-76
2023/02/18 08:57:15;;;;;;;2.15;0.98;;;;;;;;;;5032591;28;20115;-75
2023/02/18 08:59:41;;;;;;;2.40;1.02;;;;;;;;;;5031739;28;20128;-76
2023/02/18 09:02:10;;;;;;;2.08;1.00;;;;;;;;;;5045759;28;20484;-77
2023/02/18 09:04:37;;;;;;;3.15;1.02;;;;;;;;;;5053597;28;20123;-76
2023/02/18 09:07:05;;;;;;;2.30;1.10;;;;;;;;;;5052239;28;20085;-76
2023/02/18 09:09:32;;;;;;;4.50;1.38;;;;;;;;;;5052515;28;20124;-76
2023/02/18 09:11:59;;;;;;;3.55;1.33;;;;;;;;;;5052556;28;20471;-76
2023/02/18 09:14:25;;;;;;;1.75;1.00;;;;;;;;;;5052509;28;20088;-75
2023/02/18 09:16:52;;;;;;;2.97;1.15;;;;;;;;;;5052098;28;20128;-76
2023/02/18 09:19:19;;;;;;;1.55;1.08;;;;;;;;;;5045354;28;20085;-75
2023/02/18 09:21:45;;;;;;;3.45;1.17;;;;;;;;;;5032899;28;20084;-79
2023/02/18 09:24:13;;;;;;;3.17;1.10;;;;;;;;;;5033581;28;20081;-76
2023/02/18 09:26:40;;;;;;;4.30;1.30;;;;;;;;;;5032108;28;20555;-77
2023/02/18 09:29:09;;;;;;;2.95;1.10;;;;;;;;;;5032488;28;20100;-76
2023/02/18 09:31:37;;;;;;;3.35;1.15;;;;;;;;;;5037427;28;20095;-80
2023/02/18 09:34:04;;;;;;;2.40;1.02;;;;;;;;;;5034646;28;20045;-78
2023/02/18 09:36:31;;;;;;;2.47;1.00;;;;;;;;;;5034602;28;20511;-80
2023/02/18 09:38:58;;;;;;;3.03;1.02;;;;;;;;;;5036518;28;20495;-77
2023/02/18 09:41:33;;;;;;;4.43;2.05;;;;;;;;;;5040025;28;20054;-83
2023/02/18 09:44:02;;;;;;;4.03;1.20;;;;;;;;;;5037033;28;20045;-83
2023/02/18 09:46:34;;;;;;;4.13;1.45;;;;;;;;;;5035659;28;20073;-78
2023/02/18 09:49:04;;;;;;;5.15;1.30;;;;;;;;;;5032859;28;20073;-79
2023/02/18 09:51:31;;;;;;;2.90;1.00;;;;;;;;;;5040916;28;20049;-77
2023/02/18 09:53:58;;;;;;;2.40;1.20;;;;;;;;;;5038877;28;20041;-77
2023/02/18 09:56:29;;;;;;;3.88;1.17;;;;;;;;;;5032394;28;20519;-77
2023/02/18 09:58:59;;;;;;;3.65;1.30;;;;;;;;;;5032789;28;20129;-77
2023/02/18 10:01:30;;;;;;;2.75;1.30;;;;;;;;;;5031064;28;20107;-76
2023/02/18 10:04:01;;;;;;;3.20;1.20;;;;;;;;;;5031539;28;20140;-77
2023/02/18 10:06:31;;;;;;;3.25;1.10;;;;;;;;;;5039536;28;20077;-76
2023/02/18 10:09:02;;;;;;;3.37;1.10;;;;;;;;;;5041537;28;20052;-76
2023/02/18 10:11:32;;;;;;;3.13;1.10;;;;;;;;;;5040916;28;20291;-76
2023/02/18 10:14:01;;;;;;;3.58;1.50;;;;;;;;;;5037672;28;20077;-76
2023/02/18 10:16:28;;;;;;;2.60;1.23;;;;;;;;;;5035105;28;20078;-76
2023/02/18 10:18:58;;;;;;;2.53;1.30;;;;;;;;;;5033126;28;20077;-76
2023/02/18 10:21:27;;;;;;;2.90;1.17;;;;;;;;;;5033065;28;20048;-76
2023/02/18 10:23:59;;;;;;;2.00;1.10;;;;;;;;;;5033194;28;20136;-75
2023/02/18 10:26:28;;;;;;;2.65;1.10;;;;;;;;;;5033424;28;20053;-75
2023/02/18 10:28:57;;;;;;;2.97;1.10;;;;;;;;;;5043681;28;20135;-75
2023/02/18 10:31:31;;;;;;;4.68;1.20;;;;;;;;;;5052694;28;20056;-76
2023/02/18 10:34:04;;;;;;;2.10;1.00;;;;;;;;;;5053026;28;20127;-76
2023/02/18 10:36:37;;;;;;;4.95;1.48;;;;;;;;;;5053327;28;20045;-77
2023/02/18 10:39:21;;;;;;;2.70;1.10;;;;;;;;;;5052360;28;20128;-77
2023/02/18 10:41:57;;;;;;;3.30;1.33;;;;;;;;;;5052786;28;20135;-75
2023/02/18 10:44:35;;;;;;;3.90;1.20;;;;;;;;;;5053785;28;20084;-76
2023/02/18 10:47:14;;;;;;;3.47;1.40;;;;;;;;;;5053965;28;20060;-76
2023/02/18 10:49:58;;;;;;;3.08;1.10;;;;;;;;;;5053240;28;20106;-78
2023/02/18 10:52:29;;;;;;;3.13;1.27;;;;;;;;;;5035735;28;20129;-75
2023/02/18 10:54:59;;;;;;;;;;;;;;;;;;5031873;28;20475;-76
2023/02/18 10:57:26;;;;;;;2.92;1.38;;;;;;;;;;5025878;28;20345;-76
2023/02/18 11:00:09;;;;;;;2.72;1.38;;;;;;;;;;5047044;28;20041;-76
2023/02/18 11:02:36;;;;;;;2.38;1.10;;;;;;;;;;5034024;28;20045;-78
2023/02/18 11:05:16;;;;;;;3.83;1.70;;;;;;;;;;5033623;28;20136;-76
2023/02/18 11:07:47;;;;;;;2.30;1.20;;;;;;;;;;5051939;28;20427;-76
2023/02/18 11:10:18;;;;;;;3.33;1.67;;;;;;;;;;5051839;28;20052;-76
2023/02/18 11:12:46;;;;;;;;;;;;;;;;;;5051943;28;20512;-76
2023/02/18 11:15:22;;;;;;;2.88;1.08;;;;;;;;;;5040141;28;19951;-76
2023/02/18 11:17:51;;;;;;;2.47;1.13;;;;;;;;;;5031357;28;20048;-76
2023/02/18 11:20:31;;;;;;;3.35;1.23;;;;;;;;;;5031585;28;20053;-77
2023/02/18 11:22:59;;;;;;;3.00;1.17;;;;;;;;;;5030485;28;20050;-76
2023/02/18 11:25:31;;;;;;;2.03;0.95;;;;;;;;;;5031481;28;20129;-76
2023/02/18 11:28:02;;;;;;;1.58;0.82;;;;;;;;;;5031831;28;20559;-76
2023/02/18 11:30:34;;;;;;;3.20;1.20;;;;;;;;;;5032096;28;20087;-76
2023/02/18 11:33:07;;;;;;;1.85;0.90;;;;;;;;;;5031647;28;20049;-76
2023/02/18 11:35:34;;;;;;;3.58;1.10;;;;;;;;;;5031921;28;20493;-76
2023/02/18 11:38:04;;;;;;;2.30;1.30;;;;;;;;;;5030857;28;20080;-76
2023/02/18 11:40:33;;;;;;;3.17;0.98;;;;;;;;;;5036341;28;20041;-75
2023/02/18 11:43:09;;;;;;;2.10;0.90;;;;;;;;;;5031357;28;20124;-76
2023/02/18 11:45:37;;;;;;;3.10;0.80;;;;;;;;;;5011978;28;20050;-76
2023/02/18 11:48:08;;;;;;;1.80;1.10;;;;;;;;;;5049794;28;20052;-77
2023/02/18 11:50:35;;;;;;;;;;;;;;;;;;5053329;28;20091;-77
2023/02/18 11:53:25;;;;;;;1.92;1.10;;;;;;;;;;5032654;28;20525;-76
2023/02/18 11:55:55;;;;;;;2.28;0.95;;;;;;;;;;5011802;28;20081;-77
2023/02/18 11:58:22;;;;;;;2.53;1.10;;;;;;;;;;5017603;28;20052;-77
2023/02/18 12:00:51;;;;;;;3.10;1.02;;;;;;;;;;5050870;28;20538;-77
2023/02/18 12:03:28;;;;;;;3.70;1.52;;;;;;;;;;5050716;28;20049;-76
2023/02/18 12:05:57;;;;;;;5.57;0.80;;;;;;;;;;5039920;28;20601;-76
2023/02/18 12:08:27;;;;;;;2.90;1.00;;;;;;;;;;5030890;28;20045;-76
2023/02/18 12:10:56;;;;;;;2.72;0.93;;;;;;;;;;5030485;28;20089;-76
2023/02/18 12:13:26;;;;;;;2.87;1.13;;;;;;;;;;5030322;28;20124;-76
2023/02/18 12:16:05;;;;;;;2.38;1.00;;;;;;;;;;5031824;28;20373;-77
2023/02/18 12:18:54;;;;;;;1.52;0.80;;;;;;;;;;5031039;28;20037;-75
2023/02/18 12:21:34;;;;;;;2.72;0.93;;;;;;;;;;5030215;28;20572;-77
2023/02/18 12:24:11;;;;;;;1.73;0.80;;;;;;;;;;5032364;28;20105;-75
2023/02/18 12:26:53;;;;;;;1.92;1.00;;;;;;;;;;5045723;28;20056;-79
2023/02/18 12:29:38;;;;;;;2.35;0.90;;;;;;;;;;5041029;28;20057;-76
2023/02/18 12:32:19;;;;;;;1.90;0.90;;;;;;;;;;5030795;28;20132;-76
2023/02/18 12:35:07;;;;;;;3.50;1.20;;;;;;;;;;5033437;28;20661;-77
2023/02/18 12:37:55;;;;;;;3.85;1.10;;;;;;;;;;5046563;28;20049;-75
2023/02/18 12:40:40;;;;;;;8.32;3.05;;;;;;;;;;5038106;28;20097;-77
2023/02/18 12:43:13;;;;;;;5.28;1.98;;;;;;;;;;5035223;28;20064;-80
2023/02/18 12:45:57;;;;;;;3.10;1.10;;;;;;;;;;5035701;28;20222;-80
2023/02/18 12:48:58;;;;;;;1.67;0.90;;;;;;;;;;5032300;28;20095;-77
2023/02/18 12:51:49;;;;;;;2.10;1.10;;;;;;;;;;5021209;28;20132;-77
2023/02/18 12:54:30;;;;;;;18.30;6.03;;;;;;;;;;5033380;28;20080;-78
2023/02/18 12:57:13;;;;;;;5.25;1.95;;;;;;;;;;5047989;28;20159;-78
2023/02/18 13:00:13;;;;;;;4.57;1.52;;;;;;;;;;5034449;28;20049;-81
2023/02/18 13:02:58;;;;;;;5.05;1.30;;;;;;;;;;5038746;28;20431;-81
2023/02/18 13:05:31;;;;;;;4.72;1.60;;;;;;;;;;5046244;28;20538;-78
2023/02/18 13:08:18;;;;;;;3.40;1.20;;;;;;;;;;5051756;28;20068;-77
2023/02/18 13:10:56;;;;;;;3.50;1.30;;;;;;;;;;5051308;28;20081;-77
2023/02/18 13:13:25;;;;;;;4.13;1.75;;;;;;;;;;5029555;28;20128;-77
2023/02/18 13:15:55;;;;;;;3.42;1.45;;;;;;;;;;5037228;28;20076;-76
2023/02/18 13:18:26;;;;;;;3.25;1.35;;;;;;;;;;5045684;28;20053;-77
2023/02/18 13:20:56;;;;;;;3.25;1.20;;;;;;;;;;5058516;28;20038;-76
2023/02/18 13:23:29;;;;;;;4.17;1.30;;;;;;;;;;5033721;28;20077;-77
2023/02/18 13:25:59;;;;;;;4.35;1.60;;;;;;;;;;5036237;28;20802;-77
2023/02/18 13:28:32;;;;;;;3.55;1.40;;;;;;;;;;5043985;28;20465;-77
2023/02/18 13:31:10;;;;;;;4.38;1.50;;;;;;;;;;5031460;28;20092;-76
2023/02/18 13:33:46;;;;;;;2.05;1.30;;;;;;;;;;5034927;28;20045;-77
2023/02/18 13:36:25;;;;;;;3.15;1.35;;;;;;;;;;5039450;28;20095;-77
2023/02/18 13:39:04;;;;;;;6.25;1.27;;;;;;;;;;5042983;28;20037;-77
2023/02/18 13:41:35;;;;;;;3.85;1.50;;;;;;;;;;5042095;28;20052;-77
2023/02/18 13:44:08;;;;;;;3.42;1.88;;;;;;;;;;5036138;28;20073;-77
2023/02/18 13:46:48;;;;;;;2.25;1.23;;;;;;;;;;5039784;28;20088;-79
2023/02/18 13:49:21;;;;;;;2.65;1.30;;;;;;;;;;5060231;28;20072;-78
2023/02/18 13:51:50;;;;;;;3.42;1.63;;;;;;;;;;5057700;28;20052;-77
2023/02/18 13:54:24;;;;;;;3.53;1.50;;;;;;;;;;5054052;28;20068;-77
2023/02/18 13:56:54;;;;;;;2.47;1.30;;;;;;;;;;5042847;28;20684;-77
2023/02/18 13:59:27;;;;;;;5.35;1.50;;;;;;;;;;5044833;28;20049;-77
2023/02/18 14:01:53;;;;;;;4.80;1.35;;;;;;;;;;5039173;28;20370;-77
2023/02/18 14:04:50;;;;;;;3.75;1.50;;;;;;;;;;5035391;28;20136;-75
2023/02/18 14:07:27;;;;;;;4.13;1.85;;;;;;;;;;5045403;28;20037;-78
2023/02/18 14:09:57;;;;;;;2.88;1.20;;;;;;;;;;5034877;28;20062;-78
2023/02/18 14:12:43;;;;;;;3.78;1.20;;;;;;;;;;5038135;28;20073;-78
2023/02/18 14:15:48;;;;;;;4.15;1.20;;;;;;;;;;5034507;28;20045;-77
2023/02/18 14:18:30;;;;;;;3.53;1.50;;;;;;;;;;5035850;28;20520;-76
2023/02/18 14:21:17;;;;;;;3.72;1.30;;;;;;;;;;5035633;28;20124;-78
2023/02/18 14:23:56;;;;;;;3.03;1.33;;;;;;;;;;5026463;28;20128;-76
2023/02/18 14:26:32;;;;;;;4.03;1.40;;;;;;;;;;5033780;28;20056;-78
2023/02/18 14:29:04;;;;;;;3.40;1.48;;;;;;;;;;5039011;28;20075;-78
2023/02/18 14:31:40;;;;;;;3.30;1.10;;;;;;;;;;5042872;28;20125;-77
2023/02/18 14:34:29;;;;;;;3.95;1.60;;;;;;;;;;5039190;28;20041;-76
2023/02/18 14:37:06;;;;;;;2.23;1.13;;;;;;;;;;5013930;28;20109;-77
2023/02/18 14:39:47;;;;;;;3.75;1.20;;;;;;;;;;5049190;28;20069;-78
2023/02/18 14:42:27;;;;;;;3.38;1.60;;;;;;;;;;5036020;28;20080;-78
2023/02/18 14:45:23;;;;;;;2.60;1.23;;;;;;;;;;5035707;28;20107;-76
2023/02/18 14:48:15;;;;;;;2.75;1.30;;;;;;;;;;5038298;28;20057;-79
2023/02/18 14:50:44;;;;;;;4.63;1.38;;;;;;;;;;5039081;28;20048;-77
2023/02/18 14:53:17;;;;;;;3.22;1.30;;;;;;;;;;5038635;28;20049;-78
2023/02/18 14:55:47;;;;;;;3.45;1.42;;;;;;;;;;5039459;28;20041;-76
2023/02/18 14:58:27;;;;;;;2.50;1.20;;;;;;;;;;5051078;28;20076;-77
2023/02/18 15:00:54;;;;;;;1.80;1.25;;;;;;;;;;5019027;28;20046;-78
2023/02/18 15:03:22;;;;;;;3.88;1.48;;;;;;;;;;5019208;28;20073;-78
2023/02/18 15:05:50;;;;;;;2.95;1.10;;;;;;;;;;5033716;28;20137;-77
2023/02/18 15:08:19;;;;;;;2.97;1.15;;;;;;;;;;5057373;28;20049;-78
2023/02/18 15:10:49;;;;;;;2.67;1.20;;;;;;;;;;5038302;28;20128;-77